Appleton, Maine
Current Conditions -  °F | °C
As of 3:55 PM on Tuesday 25 Nov 2014 (Local Time) from KRKD Reporting Station
Clear Clear  
Wind Chill: 12°   Ceiling: Unl
Heat Index: 12°   Visibility: 10mi
Dew Point:   Wind: 12mph
Humidity: 58%   Direction: 220°SW
Pressure: 29.8"   Gusts: 16mph
Location:  44.2596°N, 69.2573°W
Report Text: KRKD 252055Z AUTO 22010G14KT 10SM CLR 12/04 A2980 RMK AO1 52007
Loading
Personal Weather Stations






























Interactive Weather Map New forecast layout! Learn more

10-Day Weather Forecast

Advertisements
Track Severe Weather on mobile